Time;durP1;ratioP1;P1;durP2;ratioP2;P2;SDS_P1;SDS_P2;PMS_P1;PMS_P2;Temp;Humidity;BMP_temperature;BMP_pressure;BME280_temperature;BME280_humidity;BME280_pressure;Samples;Min_cycle;Max_cycle;Signal;HPM_P1;HPM_P2
2022/08/16 00:02:11;;;;;;;15.95;12.52;;;18.10;99.90;;;;;;5035131;28;20095;-76
2022/08/16 00:04:39;;;;;;;15.82;12.82;;;18.10;99.90;;;;;;5033297;28;20041;-77
2022/08/16 00:07:07;;;;;;;15.48;12.52;;;18.10;99.90;;;;;;5018180;28;20045;-76
2022/08/16 00:09:35;;;;;;;18.25;13.02;;;18.10;99.90;;;;;;5035183;28;20472;-77
2022/08/16 00:12:03;;;;;;;18.20;13.07;;;18.10;99.90;;;;;;5017486;28;20037;-77
2022/08/16 00:14:33;;;;;;;13.07;11.77;;;18.10;99.90;;;;;;5034707;28;20087;-76
2022/08/16 00:17:01;;;;;;;14.77;12.05;;;18.00;99.90;;;;;;5035220;28;20073;-77
2022/08/16 00:19:32;;;;;;;15.18;12.63;;;17.90;99.90;;;;;;5035146;28;20435;-77
2022/08/16 00:22:00;;;;;;;14.48;12.95;;;17.90;99.90;;;;;;5035223;28;20444;-77
2022/08/16 00:24:30;;;;;;;14.77;13.18;;;17.90;99.90;;;;;;5016332;28;20049;-78
2022/08/16 00:26:57;;;;;;;17.42;12.82;;;17.90;99.90;;;;;;5034947;28;20037;-77
2022/08/16 00:29:24;;;;;;;15.95;12.30;;;17.90;99.90;;;;;;5019263;28;20084;-79
2022/08/16 00:31:52;;;;;;;22.08;14.65;;;17.80;99.90;;;;;;5033961;28;20048;-77
2022/08/16 00:34:22;;;;;;;16.38;13.55;;;17.70;99.90;;;;;;5017226;28;20045;-75
2022/08/16 00:36:50;;;;;;;14.60;13.05;;;17.70;99.90;;;;;;5034846;28;20045;-78
2022/08/16 00:39:19;;;;;;;14.45;12.80;;;17.60;99.90;;;;;;5034644;28;20578;-76
2022/08/16 00:41:49;;;;;;;21.42;13.73;;;17.60;99.90;;;;;;5016356;28;20128;-76
2022/08/16 00:44:19;;;;;;;15.23;13.27;;;17.60;99.90;;;;;;5016007;28;20053;-76
2022/08/16 00:46:53;;;;;;;15.80;13.15;;;17.60;99.90;;;;;;5034443;28;20045;-77
2022/08/16 00:49:20;;;;;;;16.33;13.00;;;17.50;99.90;;;;;;5017140;28;20045;-77
2022/08/16 00:51:49;;;;;;;17.58;12.50;;;17.60;99.90;;;;;;5034128;28;20099;-78
2022/08/16 00:54:17;;;;;;;16.25;12.57;;;17.60;99.90;;;;;;5015780;28;20049;-76
2022/08/16 00:56:50;;;;;;;13.13;11.73;;;17.50;99.90;;;;;;5034695;28;20068;-76
2022/08/16 00:59:21;;;;;;;14.77;13.02;;;17.50;99.90;;;;;;5034375;28;20041;-77
2022/08/16 01:01:48;;;;;;;15.30;12.60;;;17.50;99.90;;;;;;5017046;28;20050;-78
2022/08/16 01:04:20;;;;;;;17.20;11.98;;;17.40;99.90;;;;;;5033832;28;20045;-79
2022/08/16 01:06:48;;;;;;;14.65;12.82;;;17.40;99.90;;;;;;5034729;28;20042;-77
2022/08/16 01:09:15;;;;;;;19.83;13.60;;;17.40;99.90;;;;;;5032916;28;20045;-77
2022/08/16 01:11:43;;;;;;;17.63;13.80;;;17.40;99.90;;;;;;5035643;28;20041;-80
2022/08/16 01:14:18;;;;;;;15.00;12.98;;;17.30;99.90;;;;;;5017565;28;20062;-77
2022/08/16 01:16:47;;;;;;;19.52;13.70;;;17.20;99.90;;;;;;5036074;28;20049;-79
2022/08/16 01:19:21;;;;;;;15.90;13.75;;;17.10;99.90;;;;;;5017531;28;20049;-78
2022/08/16 01:21:56;;;;;;;15.30;13.70;;;17.10;99.90;;;;;;5017051;28;20042;-78
2022/08/16 01:24:32;;;;;;;15.88;13.38;;;17.00;99.90;;;;;;5032050;28;20050;-79
2022/08/16 01:27:03;;;;;;;15.45;13.77;;;17.00;99.90;;;;;;5024473;28;20143;-77
2022/08/16 01:29:37;;;;;;;17.83;13.00;;;16.90;99.90;;;;;;5021222;28;20045;-77
2022/08/16 01:32:05;;;;;;;16.77;13.23;;;16.90;99.90;;;;;;5020791;28;20049;-78
2022/08/16 01:34:32;;;;;;;16.70;13.23;;;17.00;99.90;;;;;;5020597;28;20436;-79
2022/08/16 01:37:03;;;;;;;14.93;13.23;;;17.00;99.90;;;;;;5017837;28;20060;-78
2022/08/16 01:39:33;;;;;;;14.55;13.05;;;17.00;99.90;;;;;;5019984;28;20140;-76
2022/08/16 01:42:01;;;;;;;20.10;12.68;;;17.00;99.90;;;;;;5021104;28;20050;-77
2022/08/16 01:44:30;;;;;;;44.25;36.55;;;17.10;99.90;;;;;;5019916;28;20443;-76
2022/08/16 01:46:57;;;;;;;15.50;12.82;;;17.10;99.90;;;;;;5020229;28;20428;-76
2022/08/16 01:49:27;;;;;;;17.83;12.85;;;17.10;99.90;;;;;;5021586;28;20049;-77
2022/08/16 01:51:57;;;;;;;14.20;12.70;;;17.00;99.90;;;;;;5022798;28;20067;-77
2022/08/16 01:54:46;;;;;;;15.30;13.65;;;17.00;99.90;;;;;;5038494;28;20053;-77
2022/08/16 01:57:13;;;;;;;14.07;12.52;;;17.00;99.90;;;;;;5020286;28;20136;-76
2022/08/16 01:59:41;;;;;;;15.07;12.77;;;17.00;99.90;;;;;;5020178;28;20472;-77
2022/08/16 02:02:11;;;;;;;24.33;19.17;;;16.90;99.90;;;;;;5037095;28;20041;-77
2022/08/16 02:04:38;;;;;;;15.15;13.05;;;16.90;99.90;;;;;;5019774;28;20053;-77
2022/08/16 02:07:07;;;;;;;15.55;12.48;;;16.90;99.90;;;;;;5020920;28;20049;-77
2022/08/16 02:09:38;;;;;;;17.27;12.95;;;16.80;99.90;;;;;;5020077;28;20092;-77
2022/08/16 02:12:09;;;;;;;16.33;12.07;;;16.70;99.90;;;;;;5019167;28;20037;-77
2022/08/16 02:14:39;;;;;;;14.30;12.80;;;16.70;99.90;;;;;;5019739;28;20417;-77
2022/08/16 02:17:09;;;;;;;15.60;12.70;;;16.60;99.90;;;;;;5020068;28;20382;-80
2022/08/16 02:19:38;;;;;;;19.08;13.40;;;16.60;99.90;;;;;;5019656;28;20099;-77
2022/08/16 02:22:07;;;;;;;17.52;13.93;;;16.60;99.90;;;;;;5019313;28;20136;-76
2022/08/16 02:24:34;;;;;;;18.55;13.77;;;16.60;99.90;;;;;;5018510;28;20053;-77
2022/08/16 02:27:01;;;;;;;14.85;13.25;;;16.60;99.90;;;;;;5019203;28;20115;-77
2022/08/16 02:29:30;;;;;;;16.10;14.07;;;16.60;99.90;;;;;;5018956;28;20110;-77
2022/08/16 02:31:58;;;;;;;17.73;13.68;;;16.50;99.90;;;;;;5036302;28;20045;-77
2022/08/16 02:34:26;;;;;;;15.95;13.48;;;16.50;99.90;;;;;;5018792;28;20057;-75
2022/08/16 02:36:53;;;;;;;17.50;13.43;;;16.50;99.90;;;;;;5037006;28;20399;-77
2022/08/16 02:39:22;;;;;;;15.95;13.20;;;16.50;99.90;;;;;;5020292;28;20047;-77
2022/08/16 02:41:51;;;;;;;15.98;12.77;;;16.50;99.90;;;;;;5019523;28;20042;-78
2022/08/16 02:44:20;;;;;;;15.48;12.50;;;16.40;99.90;;;;;;5038395;28;20099;-76
2022/08/16 02:46:52;;;;;;;15.18;12.68;;;16.40;99.90;;;;;;5038658;28;20038;-77
2022/08/16 02:49:20;;;;;;;17.13;12.57;;;16.40;99.90;;;;;;5020141;28;20052;-76
2022/08/16 02:51:48;;;;;;;20.02;12.82;;;16.40;99.90;;;;;;5020126;28;20112;-78
2022/08/16 02:54:15;;;;;;;15.70;12.77;;;16.40;99.90;;;;;;5019542;28;20060;-77
2022/08/16 02:56:45;;;;;;;16.60;12.57;;;16.40;99.90;;;;;;5018428;28;20137;-77
2022/08/16 02:59:13;;;;;;;19.08;13.38;;;16.30;99.90;;;;;;5018723;28;20520;-77
2022/08/16 03:01:40;;;;;;;18.60;14.27;;;16.30;99.90;;;;;;5045384;28;20455;-78
2022/08/16 03:04:18;;;;;;;15.13;13.23;;;16.20;99.90;;;;;;5040276;28;20045;-76
2022/08/16 03:06:45;;;;;;;17.65;13.63;;;16.20;99.90;;;;;;5042233;28;20101;-78
2022/08/16 03:09:21;;;;;;;;;;;16.20;99.90;;;;;;5041246;28;20068;-77
2022/08/16 03:11:53;;;;;;;17.55;13.88;;;16.20;99.90;;;;;;5041147;28;19921;-79
2022/08/16 03:14:21;;;;;;;15.32;13.73;;;16.20;99.90;;;;;;5039990;28;20055;-77
2022/08/16 03:16:49;;;;;;;18.98;14.40;;;16.20;99.90;;;;;;5038047;28;20076;-77
2022/08/16 03:19:18;;;;;;;17.30;14.10;;;16.10;99.90;;;;;;5034003;28;20118;-78
2022/08/16 03:21:46;;;;;;;15.13;13.52;;;16.10;99.90;;;;;;5033201;28;20060;-77
2022/08/16 03:24:13;;;;;;;17.13;13.68;;;16.10;99.90;;;;;;5038127;28;20055;-78
2022/08/16 03:26:41;;;;;;;14.77;13.07;;;16.10;99.90;;;;;;5037403;28;20053;-76
2022/08/16 03:29:10;;;;;;;18.02;13.68;;;16.10;99.90;;;;;;5024682;28;20061;-76
2022/08/16 03:31:38;;;;;;;15.68;13.52;;;16.10;99.90;;;;;;5018733;28;20069;-76
2022/08/16 03:34:05;;;;;;;16.30;13.35;;;16.00;99.90;;;;;;5018192;28;20049;-77
2022/08/16 03:36:34;;;;;;;17.52;14.13;;;16.00;99.90;;;;;;5036335;28;20504;-78
2022/08/16 03:39:05;;;;;;;20.33;13.93;;;16.00;99.90;;;;;;5018761;28;20136;-78
2022/08/16 03:41:33;;;;;;;17.05;14.70;;;16.00;99.90;;;;;;5018823;28;20052;-76
2022/08/16 03:44:01;;;;;;;19.27;14.95;;;16.00;99.90;;;;;;5019115;28;20091;-78
2022/08/16 03:46:30;;;;;;;19.73;14.85;;;16.00;99.90;;;;;;5019098;28;20407;-78
2022/08/16 03:48:59;;;;;;;16.50;14.70;;;16.00;99.90;;;;;;5019379;28;20056;-77
2022/08/16 03:51:27;;;;;;;19.30;15.32;;;16.00;99.90;;;;;;5018641;28;20049;-78
2022/08/16 03:54:04;;;;;;;24.17;17.10;;;16.00;99.90;;;;;;5044875;23;20056;-78
2022/08/16 03:56:33;;;;;;;18.55;15.85;;;16.00;99.90;;;;;;5047775;28;20079;-79
2022/08/16 03:59:01;;;;;;;19.92;16.00;;;16.00;99.90;;;;;;5051018;28;20048;-77
2022/08/16 04:01:38;;;;;;;17.35;15.20;;;16.10;99.90;;;;;;5059087;28;20067;-77
2022/08/16 04:04:06;;;;;;;21.05;15.07;;;16.10;99.90;;;;;;5067286;28;20058;-79
2022/08/16 04:06:33;;;;;;;16.80;15.00;;;16.10;99.90;;;;;;5079032;28;20052;-77
2022/08/16 04:09:02;;;;;;;21.88;14.27;;;16.10;99.90;;;;;;5078593;28;20048;-78
2022/08/16 04:11:30;;;;;;;14.75;13.25;;;16.10;99.90;;;;;;5101696;28;20111;-77
2022/08/16 04:13:58;;;;;;;17.05;14.18;;;16.10;99.90;;;;;;5082708;28;20050;-77
2022/08/16 04:16:31;;;;;;;19.83;13.48;;;16.20;99.90;;;;;;5081777;28;20066;-78
2022/08/16 04:19:10;;;;;;;14.43;12.35;;;16.40;99.90;;;;;;5055781;28;20045;-78
2022/08/16 04:21:37;;;;;;;14.35;11.60;;;16.90;99.90;;;;;;5060158;28;20045;-77
2022/08/16 04:24:07;;;;;;;19.02;12.60;;;17.30;99.90;;;;;;5081384;28;20047;-77
2022/08/16 04:26:34;;;;;;;17.02;12.15;;;17.70;99.90;;;;;;5080308;28;20056;-78
2022/08/16 04:29:05;;;;;;;17.48;12.27;;;18.20;99.90;;;;;;5065630;28;20495;-78
2022/08/16 04:31:32;;;;;;;14.85;11.27;;;18.50;99.90;;;;;;5062548;28;20059;-78
2022/08/16 04:34:02;;;;;;;14.05;11.35;;;18.60;99.90;;;;;;5052385;28;20091;-78
2022/08/16 04:36:30;;;;;;;20.40;11.73;;;18.50;99.90;;;;;;5080048;28;20476;-78
2022/08/16 04:38:57;;;;;;;15.60;11.98;;;18.20;99.90;;;;;;5070966;28;20047;-78
2022/08/16 04:41:28;;;;;;;17.90;11.98;;;18.10;99.90;;;;;;5067018;28;20534;-78
2022/08/16 04:43:55;;;;;;;17.02;12.00;;;17.90;99.90;;;;;;5083950;28;20033;-79
2022/08/16 04:46:23;;;;;;;16.83;12.10;;;17.80;99.90;;;;;;5070516;28;20143;-79
2022/08/16 04:48:50;;;;;;;22.38;12.75;;;17.90;99.90;;;;;;5067291;28;20048;-78
2022/08/16 04:51:19;;;;;;;17.08;11.85;;;18.10;99.90;;;;;;5067916;28;20044;-78
2022/08/16 04:53:49;;;;;;;13.52;11.02;;;18.10;99.90;;;;;;5088019;28;20526;-79
2022/08/16 04:56:18;;;;;;;22.45;11.85;;;18.20;99.90;;;;;;5104609;28;20044;-78
2022/08/16 04:58:47;;;;;;;16.48;12.55;;;18.40;99.90;;;;;;5106265;28;20070;-77
2022/08/16 05:01:17;;;;;;;15.13;11.80;;;18.50;99.90;;;;;;5106907;28;20045;-77
2022/08/16 05:03:44;;;;;;;17.75;13.50;;;18.60;99.90;;;;;;5125448;28;20050;-78
2022/08/16 05:06:12;;;;;;;19.90;13.05;;;18.70;99.90;;;;;;5125789;28;20043;-76
2022/08/16 05:08:40;;;;;;;19.88;11.15;;;18.70;99.90;;;;;;5106421;28;20052;-77
2022/08/16 05:11:17;;;;;;;20.63;11.82;;;18.80;99.90;;;;;;5104319;28;20075;-78
2022/08/16 05:13:48;;;;;;;18.42;11.60;;;19.00;99.90;;;;;;5104376;28;20043;-77
2022/08/16 05:16:21;;;;;;;;;;;19.20;99.90;;;;;;5105655;28;20043;-77
2022/08/16 05:18:55;;;;;;;20.00;12.93;;;19.30;99.90;;;;;;5087982;28;19956;-77
2022/08/16 05:21:23;;;;;;;19.45;14.75;;;19.40;99.90;;;;;;5085235;28;20109;-78
2022/08/16 05:23:55;;;;;;;21.42;13.48;;;19.50;99.90;;;;;;5082282;28;20047;-78
2022/08/16 05:26:24;;;;;;;13.65;11.73;;;19.60;99.90;;;;;;5085588;28;20465;-78
2022/08/16 05:28:53;;;;;;;18.38;12.77;;;19.80;99.90;;;;;;5113078;27;20031;-77
2022/08/16 05:31:20;;;;;;;17.23;12.75;;;20.00;99.90;;;;;;5127047;27;20121;-77
2022/08/16 05:33:48;;;;;;;13.65;10.82;;;20.10;99.90;;;;;;5126811;27;20401;-78
2022/08/16 05:36:15;;;;;;;13.25;10.80;;;20.30;99.90;;;;;;5141091;27;20091;-77
2022/08/16 05:38:47;;;;;;;21.23;16.88;;;20.60;99.90;;;;;;5123871;27;20510;-77
2022/08/16 05:41:16;;;;;;;17.80;12.38;;;20.80;99.90;;;;;;5126250;27;20047;-77
2022/08/16 05:43:47;;;;;;;17.05;11.18;;;21.10;99.90;;;;;;5125522;27;20040;-78
2022/08/16 05:46:23;;;;;;;15.77;10.52;;;21.50;99.90;;;;;;5124349;27;20043;-77
2022/08/16 05:48:50;;;;;;;17.00;11.48;;;21.80;99.90;;;;;;5141113;27;20046;-77
2022/08/16 05:51:18;;;;;;;16.25;9.68;;;22.10;99.90;;;;;;5124139;27;20035;-77
2022/08/16 05:53:46;;;;;;;18.75;11.32;;;22.00;99.90;;;;;;5122475;27;20126;-78
2022/08/16 05:56:15;;;;;;;15.60;10.60;;;22.00;99.90;;;;;;5105242;28;20048;-77
2022/08/16 05:58:45;;;;;;;12.60;10.05;;;22.10;99.90;;;;;;5102064;28;20070;-77
2022/08/16 06:01:15;;;;;;;16.80;10.55;;;22.30;99.90;;;;;;5100259;28;20044;-77
2022/08/16 06:03:47;;;;;;;16.63;10.90;;;22.50;99.90;;;;;;5101044;28;20046;-77
2022/08/16 06:06:24;;;;;;;15.43;10.02;;;22.60;99.90;;;;;;5099582;28;20070;-77
2022/08/16 06:08:52;;;;;;;15.30;10.82;;;22.60;99.90;;;;;;5099622;28;20510;-77
2022/08/16 06:11:19;;;;;;;17.95;10.68;;;22.60;99.90;;;;;;5099347;28;20048;-77
2022/08/16 06:13:55;;;;;;;14.55;11.05;;;22.60;99.90;;;;;;5097690;28;20067;-77
2022/08/16 06:16:33;;;;;;;23.10;10.77;;;22.80;99.90;;;;;;5100109;28;20052;-77
2022/08/16 06:19:02;;;;;;;16.98;9.85;;;22.90;99.90;;;;;;5093128;28;20502;-77
2022/08/16 06:21:33;;;;;;;16.23;11.07;;;23.10;99.90;;;;;;5103853;28;20403;-78
2022/08/16 06:24:03;;;;;;;17.67;10.73;;;23.40;99.90;;;;;;5102248;28;20468;-76
2022/08/16 06:26:34;;;;;;;13.38;10.05;;;23.60;99.90;;;;;;5101540;28;20563;-77
2022/08/16 06:29:01;;;;;;;19.08;11.32;;;23.90;99.90;;;;;;5095829;28;20101;-78
2022/08/16 06:31:37;;;;;;;18.40;12.20;;;24.30;99.90;;;;;;5083028;28;20036;-77
2022/08/16 06:34:06;;;;;;;21.80;11.88;;;24.60;99.90;;;;;;5082080;28;20044;-77
2022/08/16 06:36:36;;;;;;;16.67;10.57;;;24.70;99.90;;;;;;5084113;28;20067;-78
2022/08/16 06:39:12;;;;;;;11.80;10.13;;;24.90;99.90;;;;;;5084270;28;20491;-77
2022/08/16 06:42:08;;;;;;;15.07;10.73;;;25.20;99.90;;;;;;5089370;28;20055;-78
2022/08/16 06:44:54;;;;;;;20.23;11.73;;;25.50;99.90;;;;;;5100002;28;20047;-77
2022/08/16 06:47:36;;;;;;;17.55;12.52;;;26.20;99.90;;;;;;5081677;28;20135;-78
2022/08/16 06:50:05;;;;;;;20.60;11.73;;;26.90;99.90;;;;;;5082691;28;20059;-77
2022/08/16 06:52:39;;;;;;;25.50;13.77;;;27.40;99.90;;;;;;5081095;28;20040;-77
2022/08/16 06:55:09;;;;;;;15.68;11.75;;;27.60;99.90;;;;;;5072542;28;20068;-78
2022/08/16 06:57:38;;;;;;;23.55;12.10;;;27.70;99.90;;;;;;5080550;28;20044;-79
2022/08/16 07:00:11;;;;;;;24.98;15.77;;;27.60;99.90;;;;;;5080010;28;20071;-78
2022/08/16 07:02:43;;;;;;;20.52;13.90;;;27.40;99.90;;;;;;5079587;28;20064;-79
2022/08/16 07:05:16;;;;;;;19.85;14.25;;;27.30;99.90;;;;;;5097098;28;20400;-78
2022/08/16 07:07:56;;;;;;;24.05;16.05;;;27.30;99.90;;;;;;5079888;28;20461;-78
2022/08/16 07:10:26;;;;;;;131.15;32.25;;;27.60;99.90;;;;;;5079584;28;20048;-78
2022/08/16 07:12:55;;;;;;;27.20;14.55;;;27.70;99.90;;;;;;5078868;28;20036;-77
2022/08/16 07:15:23;;;;;;;19.52;12.43;;;27.60;99.90;;;;;;5078926;28;20040;-77
2022/08/16 07:17:50;;;;;;;19.40;12.93;;;27.60;99.90;;;;;;5069724;28;20067;-77
2022/08/16 07:20:24;;;;;;;15.70;10.65;;;27.10;99.90;;;;;;5058819;28;20048;-76
2022/08/16 07:22:55;;;;;;;15.38;9.43;;;26.80;99.90;;;;;;5057742;28;20076;-77
2022/08/16 07:25:27;;;;;;;14.73;8.65;;;26.80;99.90;;;;;;5058119;28;20071;-77
2022/08/16 07:27:55;;;;;;;15.25;8.35;;;27.10;99.90;;;;;;5058698;28;20124;-77
2022/08/16 07:30:26;;;;;;;18.50;10.20;;;27.20;99.90;;;;;;5074592;28;20126;-77
2022/08/16 07:32:54;;;;;;;17.33;10.98;;;27.50;99.90;;;;;;5077466;28;20048;-77
2022/08/16 07:35:24;;;;;;;17.23;10.00;;;27.80;99.90;;;;;;5077769;28;20071;-77
2022/08/16 07:37:52;;;;;;;16.83;11.32;;;27.70;99.90;;;;;;5077867;28;20048;-78
2022/08/16 07:40:45;;;;;;;18.98;11.85;;;27.70;99.90;;;;;;5092339;28;20398;-77
2022/08/16 07:43:13;;;;;;;16.58;12.82;;;27.90;99.90;;;;;;5080019;28;20383;-78
2022/08/16 07:45:40;;;;;;;15.23;9.23;;;27.80;99.90;;;;;;5078117;28;20440;-78
2022/08/16 07:48:08;;;;;;;11.40;9.15;;;28.10;99.90;;;;;;5076985;28;20097;-78
2022/08/16 07:50:40;;;;;;;16.23;10.90;;;28.20;99.90;;;;;;5078062;28;20101;-78
2022/08/16 07:53:08;;;;;;;10.07;8.23;;;28.10;99.90;;;;;;5076942;28;20063;-79
2022/08/16 07:55:36;;;;;;;14.68;10.80;;;27.80;99.90;;;;;;5085383;28;20052;-77
2022/08/16 07:58:04;;;;;;;17.20;11.15;;;27.60;99.90;;;;;;5078326;28;20152;-78
2022/08/16 08:00:37;;;;;;;14.45;8.60;;;27.50;99.90;;;;;;5077683;28;20048;-77
2022/08/16 08:03:05;;;;;;;17.05;11.45;;;27.40;99.90;;;;;;5077652;28;20093;-76
2022/08/16 08:05:33;;;;;;;12.48;8.25;;;27.20;99.90;;;;;;5078062;28;20070;-78
2022/08/16 08:08:02;;;;;;;15.43;7.93;;;27.40;99.90;;;;;;5079063;28;20131;-78
2022/08/16 08:10:30;;;;;;;10.75;8.25;;;27.70;98.40;;;;;;5078355;28;20560;-78
2022/08/16 08:13:01;;;;;;;11.18;7.45;;;27.90;97.00;;;;;;5076858;28;20048;-77
2022/08/16 08:15:29;;;;;;;9.18;7.47;;;28.00;95.00;;;;;;5077775;28;20051;-77
2022/08/16 08:17:58;;;;;;;11.65;9.00;;;28.10;94.20;;;;;;5076808;28;20048;-78
2022/08/16 08:20:31;;;;;;;12.90;10.23;;;28.00;94.70;;;;;;5077332;28;20197;-78
2022/08/16 08:23:02;;;;;;;13.57;6.75;;;28.00;94.90;;;;;;5076098;28;20135;-76
2022/08/16 08:25:44;;;;;;;13.63;7.78;;;27.80;94.50;;;;;;5077734;28;20445;-78
2022/08/16 08:28:12;;;;;;;10.18;7.88;;;27.80;94.50;;;;;;5077648;28;20379;-78
2022/08/16 08:30:42;;;;;;;13.88;9.43;;;27.80;93.50;;;;;;5077620;28;20052;-78
2022/08/16 08:33:11;;;;;;;15.27;9.13;;;27.80;93.60;;;;;;5076763;28;20052;-78
2022/08/16 08:35:41;;;;;;;11.93;7.13;;;27.80;93.00;;;;;;5077505;28;20048;-78
2022/08/16 08:38:11;;;;;;;11.48;7.68;;;27.80;93.30;;;;;;5076995;28;20507;-78
2022/08/16 08:40:44;;;;;;;12.82;7.70;;;28.10;93.10;;;;;;5075345;28;20434;-78
2022/08/16 08:43:12;;;;;;;11.70;8.55;;;28.20;93.40;;;;;;5076463;28;20093;-78
2022/08/16 08:45:42;;;;;;;16.65;9.82;;;28.50;93.40;;;;;;5076873;28;20054;-78
2022/08/16 08:48:09;;;;;;;12.52;9.38;;;29.10;93.10;;;;;;5076791;28;20059;-77
2022/08/16 08:50:37;;;;;;;12.20;8.20;;;29.20;92.70;;;;;;5076548;28;20047;-78
2022/08/16 08:53:05;;;;;;;13.55;7.72;;;29.40;92.80;;;;;;5076601;28;20392;-78
2022/08/16 08:55:35;;;;;;;13.07;9.07;;;29.60;92.40;;;;;;5078948;28;20051;-77
2022/08/16 08:58:02;;;;;;;12.40;10.07;;;29.60;91.70;;;;;;5097574;28;20054;-77
2022/08/16 09:00:38;;;;;;;15.32;9.52;;;29.30;91.70;;;;;;5115654;28;20040;-78
2022/08/16 09:03:06;;;;;;;20.48;13.32;;;29.40;91.60;;;;;;5097355;28;20529;-79
2022/08/16 09:05:38;;;;;;;17.02;10.82;;;29.40;91.80;;;;;;5096723;28;20058;-78
2022/08/16 09:08:08;;;;;;;20.92;14.88;;;29.60;91.50;;;;;;5098188;28;20047;-80
2022/08/16 09:10:54;;;;;;;21.35;11.82;;;29.60;91.30;;;;;;5099073;28;20487;-79
2022/08/16 09:13:22;;;;;;;18.58;11.77;;;29.60;91.40;;;;;;5098652;28;20047;-79
2022/08/16 09:15:49;;;;;;;24.90;12.88;;;29.70;91.50;;;;;;5117137;28;20055;-78
2022/08/16 09:18:17;;;;;;;19.33;11.25;;;29.80;91.60;;;;;;5071193;28;20049;-78
2022/08/16 09:20:45;;;;;;;18.20;11.05;;;29.90;92.00;;;;;;5059662;28;20052;-81
2022/08/16 09:23:13;;;;;;;20.40;13.00;;;29.80;92.40;;;;;;5078657;28;20098;-79
2022/08/16 09:25:44;;;;;;;19.92;11.90;;;29.90;92.80;;;;;;5061868;28;20052;-79
2022/08/16 09:28:16;;;;;;;16.77;11.32;;;29.90;93.10;;;;;;5061266;28;20052;-78
2022/08/16 09:30:55;;;;;;;19.65;10.60;;;29.80;93.30;;;;;;5076786;28;20048;-78
2022/08/16 09:33:23;;;;;;;24.45;13.15;;;30.10;93.20;;;;;;5076250;28;20337;-79
2022/08/16 09:35:51;;;;;;;24.13;12.20;;;30.10;93.90;;;;;;5076597;28;20040;-80
2022/08/16 09:38:18;;;;;;;33.53;20.98;;;29.90;93.80;;;;;;5077598;28;20048;-79
2022/08/16 09:40:47;;;;;;;20.70;14.52;;;29.80;94.20;;;;;;5076445;28;20102;-81
2022/08/16 09:43:19;;;;;;;22.65;14.50;;;29.60;94.10;;;;;;5082067;28;20041;-78
2022/08/16 09:45:47;;;;;;;25.48;16.08;;;29.70;94.30;;;;;;5087192;28;20140;-80
2022/08/16 09:48:16;;;;;;;27.67;18.80;;;29.70;94.80;;;;;;5077346;28;20453;-79
2022/08/16 09:50:45;;;;;;;15.32;11.98;;;29.60;94.90;;;;;;5075926;28;20478;-79
2022/08/16 09:53:14;;;;;;;28.38;13.73;;;29.20;95.60;;;;;;5076292;28;20041;-79
2022/08/16 09:55:43;;;;;;;20.38;13.45;;;29.10;96.00;;;;;;5077124;23;20042;-80
2022/08/16 09:58:12;;;;;;;20.02;12.07;;;29.30;96.00;;;;;;5030653;28;20463;-80
2022/08/16 10:00:41;;;;;;;20.80;14.10;;;29.40;95.30;;;;;;5022983;28;20420;-81
2022/08/16 10:03:10;;;;;;;15.02;10.70;;;29.50;95.70;;;;;;5023346;28;20049;-81
2022/08/16 10:05:38;;;;;;;16.23;10.43;;;29.30;95.60;;;;;;5025455;28;20050;-79
2022/08/16 10:08:06;;;;;;;16.40;10.65;;;29.00;96.20;;;;;;5022501;28;20060;-81
2022/08/16 10:10:34;;;;;;;16.17;9.70;;;28.60;97.00;;;;;;5044173;28;20049;-79
2022/08/16 10:13:14;;;;;;;22.58;12.43;;;28.40;97.50;;;;;;5040860;28;20046;-81
2022/08/16 10:15:45;;;;;;;19.20;11.60;;;28.20;97.90;;;;;;5040678;28;20042;-80
2022/08/16 10:18:14;;;;;;;18.33;13.05;;;28.20;98.40;;;;;;5041856;28;20107;-81
2022/08/16 10:20:44;;;;;;;15.88;11.80;;;28.20;98.80;;;;;;5048662;28;20057;-79
2022/08/16 10:23:14;;;;;;;19.65;12.50;;;28.40;99.00;;;;;;5063168;28;20045;-81
2022/08/16 10:25:43;;;;;;;14.23;9.05;;;28.60;99.00;;;;;;5063773;28;20048;-81
2022/08/16 10:28:12;;;;;;;18.02;12.02;;;29.00;98.90;;;;;;5063709;28;20052;-80
2022/08/16 10:30:41;;;;;;;19.92;12.30;;;29.20;98.20;;;;;;5060114;28;20108;-79
2022/08/16 10:33:10;;;;;;;12.40;8.35;;;29.40;97.50;;;;;;5060417;28;20120;-80
2022/08/16 10:35:37;;;;;;;14.40;7.57;;;28.80;96.10;;;;;;5059784;28;20045;-80
2022/08/16 10:38:05;;;;;;;16.00;8.88;;;28.70;96.10;;;;;;5045433;28;20112;-81
2022/08/16 10:40:32;;;;;;;12.02;6.65;;;28.50;96.90;;;;;;5043177;28;20123;-81
2022/08/16 10:43:00;;;;;;;14.95;8.02;;;28.60;95.00;;;;;;5041881;28;20095;-80
2022/08/16 10:45:28;;;;;;;16.17;8.05;;;28.70;94.60;;;;;;5042216;28;20065;-81
2022/08/16 10:47:57;;;;;;;13.13;7.85;;;28.80;93.80;;;;;;5060787;28;20090;-81
2022/08/16 10:50:26;;;;;;;16.83;9.90;;;29.00;93.60;;;;;;5044705;28;20045;-81
2022/08/16 10:52:54;;;;;;;11.85;8.95;;;29.20;93.30;;;;;;5060383;28;20060;-81
2022/08/16 10:55:21;;;;;;;11.98;9.05;;;29.30;93.00;;;;;;5058695;28;20045;-81
2022/08/16 10:57:50;;;;;;;14.65;9.57;;;29.40;91.40;;;;;;5059447;28;20386;-80
2022/08/16 11:00:18;;;;;;;12.63;6.90;;;29.10;91.40;;;;;;5058563;28;20049;-80
2022/08/16 11:02:46;;;;;;;9.75;6.68;;;29.00;91.30;;;;;;5059273;28;20099;-81
2022/08/16 11:05:15;;;;;;;9.38;6.80;;;28.90;91.00;;;;;;5059609;28;20112;-80
2022/08/16 11:07:46;;;;;;;9.98;6.68;;;28.80;91.10;;;;;;5059345;28;20507;-81
2022/08/16 11:10:17;;;;;;;18.98;14.50;;;28.90;91.20;;;;;;5044367;28;20103;-81
2022/08/16 11:12:44;;;;;;;13.48;9.95;;;29.00;91.30;;;;;;5041541;28;20056;-80
2022/08/16 11:15:12;;;;;;;11.18;7.20;;;28.90;90.90;;;;;;5060073;28;20049;-82
2022/08/16 11:17:40;;;;;;;8.85;6.28;;;29.00;91.10;;;;;;5062721;28;20523;-81
2022/08/16 11:20:12;;;;;;;15.77;9.95;;;28.80;91.30;;;;;;5058623;28;20052;-79
2022/08/16 11:22:41;;;;;;;11.52;6.63;;;28.90;91.30;;;;;;5058239;28;20060;-81
2022/08/16 11:25:11;;;;;;;14.32;8.95;;;29.10;91.50;;;;;;5059411;28;20041;-81
2022/08/16 11:27:38;;;;;;;18.05;8.60;;;29.20;91.10;;;;;;5060901;28;20492;-79
2022/08/16 11:30:09;;;;;;;12.32;8.35;;;29.50;90.90;;;;;;5042884;28;20084;-81
2022/08/16 11:32:37;;;;;;;15.05;8.90;;;29.70;90.60;;;;;;5043293;28;20067;-81
2022/08/16 11:35:07;;;;;;;10.13;6.28;;;29.80;89.80;;;;;;5061784;28;20037;-78
2022/08/16 11:37:35;;;;;;;15.65;9.07;;;29.90;88.30;;;;;;5043754;28;20565;-79
2022/08/16 11:40:05;;;;;;;12.75;7.93;;;30.10;88.30;;;;;;5042294;28;20041;-81
2022/08/16 11:42:33;;;;;;;14.18;9.60;;;30.30;86.60;;;;;;5042247;28;20049;-81
2022/08/16 11:45:01;;;;;;;7.00;5.18;;;30.40;85.20;;;;;;5036008;28;20045;-81
2022/08/16 11:47:29;;;;;;;13.43;6.82;;;30.20;84.40;;;;;;5044896;28;20053;-80
2022/08/16 11:49:56;;;;;;;16.15;6.05;;;30.40;84.90;;;;;;5045856;28;20110;-81
2022/08/16 11:52:23;;;;;;;12.13;6.07;;;30.60;83.30;;;;;;5046100;28;20075;-81
2022/08/16 11:54:51;;;;;;;13.13;8.13;;;30.90;82.20;;;;;;5049503;28;20069;-82
2022/08/16 11:57:18;;;;;;;20.00;17.45;;;30.80;81.40;;;;;;5042762;28;20449;-81
2022/08/16 11:59:47;;;;;;;11.35;8.23;;;31.10;80.60;;;;;;5043810;28;20071;-81
2022/08/16 12:02:14;;;;;;;14.05;6.70;;;31.40;79.50;;;;;;5042973;28;20045;-81
2022/08/16 12:04:43;;;;;;;12.02;5.07;;;31.50;78.20;;;;;;5025790;28;20091;-80
2022/08/16 12:07:12;;;;;;;7.28;4.97;;;31.50;77.00;;;;;;5024552;28;20065;-80
2022/08/16 12:09:40;;;;;;;8.48;6.18;;;31.70;77.70;;;;;;5021971;28;20049;-81
2022/08/16 12:12:07;;;;;;;11.50;7.80;;;31.50;77.40;;;;;;5021857;28;20050;-82
2022/08/16 12:14:35;;;;;;;9.77;6.07;;;31.70;77.40;;;;;;5038959;28;20041;-82
2022/08/16 12:17:05;;;;;;;9.55;5.05;;;31.70;76.50;;;;;;5041819;28;20033;-81
2022/08/16 12:19:33;;;;;;;7.00;5.93;;;31.80;75.70;;;;;;5059277;28;20051;-82
2022/08/16 12:22:00;;;;;;;7.95;5.25;;;31.90;75.80;;;;;;5058748;28;20045;-81
2022/08/16 12:24:28;;;;;;;8.98;6.70;;;32.00;74.70;;;;;;5060162;28;20472;-81
2022/08/16 12:26:57;;;;;;;9.63;6.07;;;32.30;74.30;;;;;;5057943;28;20115;-82
2022/08/16 12:29:25;;;;;;;11.88;8.10;;;32.30;73.80;;;;;;5059712;28;20411;-82
2022/08/16 12:31:52;;;;;;;16.42;11.07;;;32.30;73.80;;;;;;5061579;28;20060;-81
2022/08/16 12:34:21;;;;;;;12.13;7.13;;;32.30;73.80;;;;;;5043024;28;20049;-80
2022/08/16 12:36:48;;;;;;;10.65;6.28;;;32.40;73.90;;;;;;5042924;28;20049;-82
2022/08/16 12:39:16;;;;;;;11.32;10.02;;;32.50;73.40;;;;;;5061814;28;20041;-81
2022/08/16 12:41:45;;;;;;;10.50;6.40;;;32.40;73.50;;;;;;5061171;28;20068;-82
2022/08/16 12:44:14;;;;;;;8.52;5.88;;;32.50;73.00;;;;;;5047167;28;20052;-79